Sakakah, Saudi Arabia
Current Conditions -  °F | °C
As of 6:00 AM on Tuesday 27 Jan 2015 (Local Time) from OESK Reporting Station
Clear Clear  
Wind Chill: 54°   Ceiling: Unl
Heat Index: 54°   Visibility: 6mi
Dew Point: 28°   Wind: 6mph
Humidity: 38%   Direction: 50°NE
Pressure: 30.09"   Gusts: NA
Location:  29.97°N, 40.2°E
Report Text: OESK 270300Z 05005KT CAVOK 12/M02 Q1019
Loading
Personal Weather Stations






























Interactive Weather Map New forecast layout! Learn more

10-Day Weather Forecast

Advertisements
Track Severe Weather on mobile